sensor_id;sensor_type;location;lat;lon;timestamp;temperature;humidity
21563;DHT22;10942;47.894;11.424;2023-06-10T00:01:44;16.20;99.90
21563;DHT22;10942;47.894;11.424;2023-06-10T00:04:16;16.20;99.90
21563;DHT22;10942;47.894;11.424;2023-06-10T00:06:44;16.20;99.90
21563;DHT22;10942;47.894;11.424;2023-06-10T00:09:10;16.10;99.90
21563;DHT22;10942;47.894;11.424;2023-06-10T00:11:37;16.10;99.90
21563;DHT22;10942;47.894;11.424;2023-06-10T00:14:03;16.10;99.90
21563;DHT22;10942;47.894;11.424;2023-06-10T00:16:29;16.00;99.90
21563;DHT22;10942;47.894;11.424;2023-06-10T00:18:56;15.90;99.90
21563;DHT22;10942;47.894;11.424;2023-06-10T00:21:26;15.90;99.90
21563;DHT22;10942;47.894;11.424;2023-06-10T00:23:52;15.90;99.90
21563;DHT22;10942;47.894;11.424;2023-06-10T02:16:52;13.80;99.90
21563;DHT22;10942;47.894;11.424;2023-06-10T02:19:22;13.60;99.90
21563;DHT22;10942;47.894;11.424;2023-06-10T02:21:48;13.70;99.90
21563;DHT22;10942;47.894;11.424;2023-06-10T02:24:13;13.70;99.90
21563;DHT22;10942;47.894;11.424;2023-06-10T02:26:39;13.70;99.90
21563;DHT22;10942;47.894;11.424;2023-06-10T02:29:06;13.70;99.90
21563;DHT22;10942;47.894;11.424;2023-06-10T02:31:31;13.70;99.90
21563;DHT22;10942;47.894;11.424;2023-06-10T02:33:57;13.60;99.90
21563;DHT22;10942;47.894;11.424;2023-06-10T02:36:24;13.70;99.90
21563;DHT22;10942;47.894;11.424;2023-06-10T02:38:53;13.60;99.90
21563;DHT22;10942;47.894;11.424;2023-06-10T02:41:20;13.60;99.90
21563;DHT22;10942;47.894;11.424;2023-06-10T02:43:48;13.60;99.90
21563;DHT22;10942;47.894;11.424;2023-06-10T02:46:14;13.60;99.90
21563;DHT22;10942;47.894;11.424;2023-06-10T02:48:45;13.60;99.90
21563;DHT22;10942;47.894;11.424;2023-06-10T02:51:14;13.60;99.90
21563;DHT22;10942;47.894;11.424;2023-06-10T02:53:44;13.50;99.90
21563;DHT22;10942;47.894;11.424;2023-06-10T02:56:12;13.50;99.90
21563;DHT22;10942;47.894;11.424;2023-06-10T02:58:38;13.50;99.90
21563;DHT22;10942;47.894;11.424;2023-06-10T03:01:05;13.50;99.90
21563;DHT22;10942;47.894;11.424;2023-06-10T03:03:40;13.50;99.90
21563;DHT22;10942;47.894;11.424;2023-06-10T03:06:10;13.50;99.90
21563;DHT22;10942;47.894;11.424;2023-06-10T03:25:52;13.00;99.90
21563;DHT22;10942;47.894;11.424;2023-06-10T03:28:20;13.00;99.90
21563;DHT22;10942;47.894;11.424;2023-06-10T03:30:48;13.00;99.90
21563;DHT22;10942;47.894;11.424;2023-06-10T03:33:14;13.10;99.90
21563;DHT22;10942;47.894;11.424;2023-06-10T03:35:41;13.10;99.90
21563;DHT22;10942;47.894;11.424;2023-06-10T03:38:07;13.10;99.90
21563;DHT22;10942;47.894;11.424;2023-06-10T03:40:33;13.10;99.90
21563;DHT22;10942;47.894;11.424;2023-06-10T03:43:00;13.20;99.90
21563;DHT22;10942;47.894;11.424;2023-06-10T03:45:26;13.20;99.90
21563;DHT22;10942;47.894;11.424;2023-06-10T03:47:54;13.30;99.90
21563;DHT22;10942;47.894;11.424;2023-06-10T03:50:25;13.50;99.90
21563;DHT22;10942;47.894;11.424;2023-06-10T03:52:51;13.60;99.90
21563;DHT22;10942;47.894;11.424;2023-06-10T03:55:21;13.70;99.90
21563;DHT22;10942;47.894;11.424;2023-06-10T05:33:10;13.60;99.90
21563;DHT22;10942;47.894;11.424;2023-06-10T05:35:35;21.80;99.90
21563;DHT22;10942;47.894;11.424;2023-06-10T05:42:53;22.00;99.90
21563;DHT22;10942;47.894;11.424;2023-06-10T05:45:19;23.20;99.90
21563;DHT22;10942;47.894;11.424;2023-06-10T05:47:44;23.00;99.90
21563;DHT22;10942;47.894;11.424;2023-06-10T05:50:10;23.00;99.90
21563;DHT22;10942;47.894;11.424;2023-06-10T05:52:36;22.80;99.90
21563;DHT22;10942;47.894;11.424;2023-06-10T05:55:03;23.30;99.90
21563;DHT22;10942;47.894;11.424;2023-06-10T05:57:29;22.90;99.90
21563;DHT22;10942;47.894;11.424;2023-06-10T05:59:54;23.10;99.90
21563;DHT22;10942;47.894;11.424;2023-06-10T06:09:38;24.90;99.90
21563;DHT22;10942;47.894;11.424;2023-06-10T06:12:04;25.10;99.90
21563;DHT22;10942;47.894;11.424;2023-06-10T06:14:32;24.90;99.90
21563;DHT22;10942;47.894;11.424;2023-06-10T06:38:53;26.60;99.90
21563;DHT22;10942;47.894;11.424;2023-06-10T06:41:20;29.50;99.90
21563;DHT22;10942;47.894;11.424;2023-06-10T06:43:47;29.40;99.90
21563;DHT22;10942;47.894;11.424;2023-06-10T06:56:11;30.00;99.60
21563;DHT22;10942;47.894;11.424;2023-06-10T07:01:03;31.70;95.60
21563;DHT22;10942;47.894;11.424;2023-06-10T07:03:29;30.70;95.60
21563;DHT22;10942;47.894;11.424;2023-06-10T07:05:55;30.40;97.20
21563;DHT22;10942;47.894;11.424;2023-06-10T07:08:21;30.70;95.90
21563;DHT22;10942;47.894;11.424;2023-06-10T07:10:46;30.00;95.90
21563;DHT22;10942;47.894;11.424;2023-06-10T07:13:12;30.10;96.50
21563;DHT22;10942;47.894;11.424;2023-06-10T07:15:38;30.30;96.90
21563;DHT22;10942;47.894;11.424;2023-06-10T07:18:04;30.60;96.80
21563;DHT22;10942;47.894;11.424;2023-06-10T07:20:31;30.80;95.20
21563;DHT22;10942;47.894;11.424;2023-06-10T07:22:57;30.90;96.00
21563;DHT22;10942;47.894;11.424;2023-06-10T07:25:23;31.50;95.20
21563;DHT22;10942;47.894;11.424;2023-06-10T07:27:49;31.20;94.80
21563;DHT22;10942;47.894;11.424;2023-06-10T07:30:15;31.20;95.40
21563;DHT22;10942;47.894;11.424;2023-06-10T07:32:41;30.70;94.80
21563;DHT22;10942;47.894;11.424;2023-06-10T07:35:09;31.20;95.10
21563;DHT22;10942;47.894;11.424;2023-06-10T07:37:35;31.60;94.60
21563;DHT22;10942;47.894;11.424;2023-06-10T07:40:02;32.10;94.80
21563;DHT22;10942;47.894;11.424;2023-06-10T07:42:27;32.70;99.90
21563;DHT22;10942;47.894;11.424;2023-06-10T08:14:06;32.80;94.30
21563;DHT22;10942;47.894;11.424;2023-06-10T08:28:45;34.70;90.40
21563;DHT22;10942;47.894;11.424;2023-06-10T08:33:37;34.30;85.80
21563;DHT22;10942;47.894;11.424;2023-06-10T08:36:03;33.50;87.80
21563;DHT22;10942;47.894;11.424;2023-06-10T08:38:28;33.50;88.20
21563;DHT22;10942;47.894;11.424;2023-06-10T08:40:56;33.30;89.00
21563;DHT22;10942;47.894;11.424;2023-06-10T08:43:34;33.60;88.20
21563;DHT22;10942;47.894;11.424;2023-06-10T08:46:01;33.30;89.00
21563;DHT22;10942;47.894;11.424;2023-06-10T08:48:29;33.60;87.60
21563;DHT22;10942;47.894;11.424;2023-06-10T08:50:57;33.40;87.30
21563;DHT22;10942;47.894;11.424;2023-06-10T08:55:51;32.30;88.10
21563;DHT22;10942;47.894;11.424;2023-06-10T08:58:20;32.80;88.60
21563;DHT22;10942;47.894;11.424;2023-06-10T09:00:46;32.70;86.20
21563;DHT22;10942;47.894;11.424;2023-06-10T09:03:12;31.50;95.50
21563;DHT22;10942;47.894;11.424;2023-06-10T09:05:38;31.80;90.20
21563;DHT22;10942;47.894;11.424;2023-06-10T09:08:06;30.80;91.70
21563;DHT22;10942;47.894;11.424;2023-06-10T09:17:51;30.10;92.20
21563;DHT22;10942;47.894;11.424;2023-06-10T09:20:17;30.00;92.60
21563;DHT22;10942;47.894;11.424;2023-06-10T09:22:43;30.20;93.30
21563;DHT22;10942;47.894;11.424;2023-06-10T09:25:11;30.80;92.10
21563;DHT22;10942;47.894;11.424;2023-06-10T09:27:48;30.90;91.30
21563;DHT22;10942;47.894;11.424;2023-06-10T09:42:53;28.20;94.60
21563;DHT22;10942;47.894;11.424;2023-06-10T09:45:20;28.40;94.50
21563;DHT22;10942;47.894;11.424;2023-06-10T09:47:47;28.80;93.40
21563;DHT22;10942;47.894;11.424;2023-06-10T09:50:13;28.70;93.00
21563;DHT22;10942;47.894;11.424;2023-06-10T09:52:39;28.30;93.30
21563;DHT22;10942;47.894;11.424;2023-06-10T10:00:11;26.80;94.70
21563;DHT22;10942;47.894;11.424;2023-06-10T10:02:48;26.70;95.20
21563;DHT22;10942;47.894;11.424;2023-06-10T10:05:16;26.70;95.50
21563;DHT22;10942;47.894;11.424;2023-06-10T10:07:43;26.40;95.50
21563;DHT22;10942;47.894;11.424;2023-06-10T10:10:09;26.00;95.70
21563;DHT22;10942;47.894;11.424;2023-06-10T10:12:38;25.70;96.30
21563;DHT22;10942;47.894;11.424;2023-06-10T10:15:09;25.10;96.50
21563;DHT22;10942;47.894;11.424;2023-06-10T10:20:19;24.20;97.40
21563;DHT22;10942;47.894;11.424;2023-06-10T10:22:47;24.10;98.10
21563;DHT22;10942;47.894;11.424;2023-06-10T10:27:52;23.90;97.90
21563;DHT22;10942;47.894;11.424;2023-06-10T10:30:21;23.90;98.50
21563;DHT22;10942;47.894;11.424;2023-06-10T10:32:57;24.10;98.60
21563;DHT22;10942;47.894;11.424;2023-06-10T10:35:24;24.10;98.40
21563;DHT22;10942;47.894;11.424;2023-06-10T10:37:54;24.20;98.90
21563;DHT22;10942;47.894;11.424;2023-06-10T10:40:21;24.20;97.70
21563;DHT22;10942;47.894;11.424;2023-06-10T10:42:49;24.20;97.70
21563;DHT22;10942;47.894;11.424;2023-06-10T10:45:15;24.30;97.50
21563;DHT22;10942;47.894;11.424;2023-06-10T10:47:43;24.40;98.00
21563;DHT22;10942;47.894;11.424;2023-06-10T10:50:16;24.50;97.60
21563;DHT22;10942;47.894;11.424;2023-06-10T10:52:53;24.90;97.20
21563;DHT22;10942;47.894;11.424;2023-06-10T10:55:19;25.20;97.60
21563;DHT22;10942;47.894;11.424;2023-06-10T11:02:52;25.20;97.00
21563;DHT22;10942;47.894;11.424;2023-06-10T11:05:31;24.80;97.50
21563;DHT22;10942;47.894;11.424;2023-06-10T11:07:57;24.70;97.60
21563;DHT22;10942;47.894;11.424;2023-06-10T11:10:32;24.50;98.00
21563;DHT22;10942;47.894;11.424;2023-06-10T11:12:58;24.80;97.60
21563;DHT22;10942;47.894;11.424;2023-06-10T11:15:28;24.70;98.70
21563;DHT22;10942;47.894;11.424;2023-06-10T11:18:09;24.60;99.10
21563;DHT22;10942;47.894;11.424;2023-06-10T11:26:34;24.00;98.80
21563;DHT22;10942;47.894;11.424;2023-06-10T11:31:45;23.90;98.70
21563;DHT22;10942;47.894;11.424;2023-06-10T11:34:12;23.90;98.90
21563;DHT22;10942;47.894;11.424;2023-06-10T11:36:40;24.00;99.00
21563;DHT22;10942;47.894;11.424;2023-06-10T11:39:08;23.90;99.50
21563;DHT22;10942;47.894;11.424;2023-06-10T11:41:35;24.00;99.90
21563;DHT22;10942;47.894;11.424;2023-06-10T11:44:03;24.20;99.90
21563;DHT22;10942;47.894;11.424;2023-06-10T11:46:29;24.10;99.60
21563;DHT22;10942;47.894;11.424;2023-06-10T11:48:56;24.10;99.70
21563;DHT22;10942;47.894;11.424;2023-06-10T11:51:27;24.10;99.60
21563;DHT22;10942;47.894;11.424;2023-06-10T11:53:54;24.10;99.90
21563;DHT22;10942;47.894;11.424;2023-06-10T11:56:24;24.10;99.40
21563;DHT22;10942;47.894;11.424;2023-06-10T11:58:55;24.10;99.30
21563;DHT22;10942;47.894;11.424;2023-06-10T12:01:24;24.00;99.10
21563;DHT22;10942;47.894;11.424;2023-06-10T12:04:02;24.00;99.10
21563;DHT22;10942;47.894;11.424;2023-06-10T12:06:50;24.00;98.30
21563;DHT22;10942;47.894;11.424;2023-06-10T12:09:30;24.10;98.70
21563;DHT22;10942;47.894;11.424;2023-06-10T12:12:00;24.10;98.60
21563;DHT22;10942;47.894;11.424;2023-06-10T12:14:56;24.20;98.80
21563;DHT22;10942;47.894;11.424;2023-06-10T12:20:27;24.20;99.10
21563;DHT22;10942;47.894;11.424;2023-06-10T12:22:54;24.00;99.40
21563;DHT22;10942;47.894;11.424;2023-06-10T12:25:28;23.90;99.50
21563;DHT22;10942;47.894;11.424;2023-06-10T12:27:56;23.80;99.90
21563;DHT22;10942;47.894;11.424;2023-06-10T12:30:24;23.60;99.30
21563;DHT22;10942;47.894;11.424;2023-06-10T12:32:51;23.60;99.60
21563;DHT22;10942;47.894;11.424;2023-06-10T12:35:22;23.60;99.10
21563;DHT22;10942;47.894;11.424;2023-06-10T12:38:02;23.70;98.90
21563;DHT22;10942;47.894;11.424;2023-06-10T12:40:30;23.70;98.20
21563;DHT22;10942;47.894;11.424;2023-06-10T12:42:57;23.70;99.20
21563;DHT22;10942;47.894;11.424;2023-06-10T12:45:34;23.90;99.40
21563;DHT22;10942;47.894;11.424;2023-06-10T12:48:11;24.00;97.80
21563;DHT22;10942;47.894;11.424;2023-06-10T12:50:41;24.00;98.40
21563;DHT22;10942;47.894;11.424;2023-06-10T12:53:08;24.10;99.40
21563;DHT22;10942;47.894;11.424;2023-06-10T12:55:34;24.20;98.80
21563;DHT22;10942;47.894;11.424;2023-06-10T12:58:01;24.50;98.70
21563;DHT22;10942;47.894;11.424;2023-06-10T13:00:28;24.50;97.70
21563;DHT22;10942;47.894;11.424;2023-06-10T13:02:59;24.40;97.80
21563;DHT22;10942;47.894;11.424;2023-06-10T13:05:26;24.20;97.80
21563;DHT22;10942;47.894;11.424;2023-06-10T13:07:52;24.30;98.20
21563;DHT22;10942;47.894;11.424;2023-06-10T13:10:18;24.30;97.50
21563;DHT22;10942;47.894;11.424;2023-06-10T13:12:45;24.30;97.00
21563;DHT22;10942;47.894;11.424;2023-06-10T13:15:12;24.30;97.40
21563;DHT22;10942;47.894;11.424;2023-06-10T13:17:38;24.50;97.60
21563;DHT22;10942;47.894;11.424;2023-06-10T13:20:05;24.70;98.00
21563;DHT22;10942;47.894;11.424;2023-06-10T13:22:32;24.80;97.20
21563;DHT22;10942;47.894;11.424;2023-06-10T13:25:04;24.80;97.50
21563;DHT22;10942;47.894;11.424;2023-06-10T13:27:32;24.70;97.20
21563;DHT22;10942;47.894;11.424;2023-06-10T13:29:58;24.50;96.80
21563;DHT22;10942;47.894;11.424;2023-06-10T13:32:24;24.20;96.50
21563;DHT22;10942;47.894;11.424;2023-06-10T13:34:49;24.10;97.00
21563;DHT22;10942;47.894;11.424;2023-06-10T13:37:16;23.90;97.30
21563;DHT22;10942;47.894;11.424;2023-06-10T13:39:45;23.70;97.30
21563;DHT22;10942;47.894;11.424;2023-06-10T13:42:14;23.70;97.70
21563;DHT22;10942;47.894;11.424;2023-06-10T13:44:40;23.60;97.50
21563;DHT22;10942;47.894;11.424;2023-06-10T13:47:06;23.70;97.90
21563;DHT22;10942;47.894;11.424;2023-06-10T13:49:32;23.90;98.10
21563;DHT22;10942;47.894;11.424;2023-06-10T13:51:58;24.10;97.30
21563;DHT22;10942;47.894;11.424;2023-06-10T13:54:23;24.30;97.50
21563;DHT22;10942;47.894;11.424;2023-06-10T13:56:49;24.50;97.40
21563;DHT22;10942;47.894;11.424;2023-06-10T13:59:15;24.70;96.90
21563;DHT22;10942;47.894;11.424;2023-06-10T14:01:40;24.50;97.30
21563;DHT22;10942;47.894;11.424;2023-06-10T14:04:06;24.30;97.40
21563;DHT22;10942;47.894;11.424;2023-06-10T14:06:33;24.10;98.40
21563;DHT22;10942;47.894;11.424;2023-06-10T14:08:59;23.90;99.50
21563;DHT22;10942;47.894;11.424;2023-06-10T14:11:25;23.90;99.60
21563;DHT22;10942;47.894;11.424;2023-06-10T14:13:51;23.70;99.60
21563;DHT22;10942;47.894;11.424;2023-06-10T14:16:17;23.50;99.80
21563;DHT22;10942;47.894;11.424;2023-06-10T14:18:42;23.50;99.90
21563;DHT22;10942;47.894;11.424;2023-06-10T14:21:08;23.60;99.80
21563;DHT22;10942;47.894;11.424;2023-06-10T14:23:34;23.60;99.30
21563;DHT22;10942;47.894;11.424;2023-06-10T14:26:00;23.50;99.90
21563;DHT22;10942;47.894;11.424;2023-06-10T14:28:27;23.50;99.90
21563;DHT22;10942;47.894;11.424;2023-06-10T14:30:54;23.30;99.90
21563;DHT22;10942;47.894;11.424;2023-06-10T14:33:20;23.20;99.90
21563;DHT22;10942;47.894;11.424;2023-06-10T14:35:45;23.10;99.90
21563;DHT22;10942;47.894;11.424;2023-06-10T14:38:11;22.90;99.90
21563;DHT22;10942;47.894;11.424;2023-06-10T14:40:37;22.90;99.90
21563;DHT22;10942;47.894;11.424;2023-06-10T14:43:02;23.00;99.90
21563;DHT22;10942;47.894;11.424;2023-06-10T14:45:38;22.90;99.90
21563;DHT22;10942;47.894;11.424;2023-06-10T14:48:04;22.90;99.90
21563;DHT22;10942;47.894;11.424;2023-06-10T14:50:30;22.90;99.90
21563;DHT22;10942;47.894;11.424;2023-06-10T14:52:56;22.90;99.90
21563;DHT22;10942;47.894;11.424;2023-06-10T14:55:21;23.00;99.90
21563;DHT22;10942;47.894;11.424;2023-06-10T14:57:50;23.20;99.90
21563;DHT22;10942;47.894;11.424;2023-06-10T15:00:16;23.30;99.90
21563;DHT22;10942;47.894;11.424;2023-06-10T15:02:45;23.40;99.90
21563;DHT22;10942;47.894;11.424;2023-06-10T15:05:16;23.40;99.90
21563;DHT22;10942;47.894;11.424;2023-06-10T15:07:43;23.50;99.90
21563;DHT22;10942;47.894;11.424;2023-06-10T15:10:09;23.60;99.90
21563;DHT22;10942;47.894;11.424;2023-06-10T15:12:35;23.50;99.90
21563;DHT22;10942;47.894;11.424;2023-06-10T15:15:02;23.50;99.90
21563;DHT22;10942;47.894;11.424;2023-06-10T15:17:28;23.40;99.90
21563;DHT22;10942;47.894;11.424;2023-06-10T15:19:54;23.30;99.90
21563;DHT22;10942;47.894;11.424;2023-06-10T15:22:21;23.30;99.90
21563;DHT22;10942;47.894;11.424;2023-06-10T15:24:46;23.30;99.90
21563;DHT22;10942;47.894;11.424;2023-06-10T15:27:12;23.40;99.90
21563;DHT22;10942;47.894;11.424;2023-06-10T15:29:38;23.40;99.90
21563;DHT22;10942;47.894;11.424;2023-06-10T15:32:04;23.40;99.90
21563;DHT22;10942;47.894;11.424;2023-06-10T15:34:30;23.60;99.90
21563;DHT22;10942;47.894;11.424;2023-06-10T15:36:56;23.50;99.90
21563;DHT22;10942;47.894;11.424;2023-06-10T15:39:22;23.60;99.90
21563;DHT22;10942;47.894;11.424;2023-06-10T15:41:50;23.60;99.90
21563;DHT22;10942;47.894;11.424;2023-06-10T15:44:15;23.70;99.70
21563;DHT22;10942;47.894;11.424;2023-06-10T15:46:41;23.70;99.50
21563;DHT22;10942;47.894;11.424;2023-06-10T15:49:07;23.80;99.90
21563;DHT22;10942;47.894;11.424;2023-06-10T15:51:32;23.80;99.60
21563;DHT22;10942;47.894;11.424;2023-06-10T15:53:58;23.80;99.50
21563;DHT22;10942;47.894;11.424;2023-06-10T15:56:24;23.90;99.70
21563;DHT22;10942;47.894;11.424;2023-06-10T15:58:50;23.90;99.20
21563;DHT22;10942;47.894;11.424;2023-06-10T16:01:16;23.90;99.50
21563;DHT22;10942;47.894;11.424;2023-06-10T16:03:41;23.80;99.20
21563;DHT22;10942;47.894;11.424;2023-06-10T16:06:07;23.80;99.50
21563;DHT22;10942;47.894;11.424;2023-06-10T16:08:33;23.90;99.20
21563;DHT22;10942;47.894;11.424;2023-06-10T16:11:00;23.90;99.10
21563;DHT22;10942;47.894;11.424;2023-06-10T16:13:25;23.90;98.90
21563;DHT22;10942;47.894;11.424;2023-06-10T16:15:51;23.80;98.50
21563;DHT22;10942;47.894;11.424;2023-06-10T16:18:17;23.90;98.80
21563;DHT22;10942;47.894;11.424;2023-06-10T16:20:43;23.70;99.00
21563;DHT22;10942;47.894;11.424;2023-06-10T16:23:08;23.80;99.10
21563;DHT22;10942;47.894;11.424;2023-06-10T16:25:34;23.80;99.30
21563;DHT22;10942;47.894;11.424;2023-06-10T16:28:01;23.70;99.30
21563;DHT22;10942;47.894;11.424;2023-06-10T16:30:28;23.70;99.90
21563;DHT22;10942;47.894;11.424;2023-06-10T16:37:46;23.80;99.90
21563;DHT22;10942;47.894;11.424;2023-06-10T16:40:12;23.30;99.90
21563;DHT22;10942;47.894;11.424;2023-06-10T16:42:37;23.30;99.90
21563;DHT22;10942;47.894;11.424;2023-06-10T16:45:03;23.30;99.90
21563;DHT22;10942;47.894;11.424;2023-06-10T16:47:29;23.30;99.90
21563;DHT22;10942;47.894;11.424;2023-06-10T16:49:55;23.20;99.90
21563;DHT22;10942;47.894;11.424;2023-06-10T16:52:20;23.00;99.90
21563;DHT22;10942;47.894;11.424;2023-06-10T16:54:46;23.00;99.90
21563;DHT22;10942;47.894;11.424;2023-06-10T16:57:12;23.00;99.90
21563;DHT22;10942;47.894;11.424;2023-06-10T16:59:37;23.10;99.90
21563;DHT22;10942;47.894;11.424;2023-06-10T17:02:03;23.10;99.90
21563;DHT22;10942;47.894;11.424;2023-06-10T17:04:29;23.10;99.90
21563;DHT22;10942;47.894;11.424;2023-06-10T17:06:55;22.90;99.90
21563;DHT22;10942;47.894;11.424;2023-06-10T17:09:21;22.90;99.90
21563;DHT22;10942;47.894;11.424;2023-06-10T17:11:46;22.90;99.90
21563;DHT22;10942;47.894;11.424;2023-06-10T17:14:12;22.80;99.90
21563;DHT22;10942;47.894;11.424;2023-06-10T17:16:38;22.60;99.90
21563;DHT22;10942;47.894;11.424;2023-06-10T17:19:04;22.50;99.90
21563;DHT22;10942;47.894;11.424;2023-06-10T17:21:29;22.40;99.90
21563;DHT22;10942;47.894;11.424;2023-06-10T17:23:55;22.40;99.90
21563;DHT22;10942;47.894;11.424;2023-06-10T17:26:21;22.30;99.90
21563;DHT22;10942;47.894;11.424;2023-06-10T17:28:47;22.20;99.90
21563;DHT22;10942;47.894;11.424;2023-06-10T17:31:13;22.20;99.90
21563;DHT22;10942;47.894;11.424;2023-06-10T17:33:39;22.30;99.90
21563;DHT22;10942;47.894;11.424;2023-06-10T17:36:05;22.20;99.90
21563;DHT22;10942;47.894;11.424;2023-06-10T17:38:30;22.20;99.90
21563;DHT22;10942;47.894;11.424;2023-06-10T17:40:56;22.20;99.90
21563;DHT22;10942;47.894;11.424;2023-06-10T17:43:22;22.20;99.90
21563;DHT22;10942;47.894;11.424;2023-06-10T17:45:49;22.20;99.90
21563;DHT22;10942;47.894;11.424;2023-06-10T17:48:15;22.10;99.90
21563;DHT22;10942;47.894;11.424;2023-06-10T17:50:41;22.10;99.90
21563;DHT22;10942;47.894;11.424;2023-06-10T17:53:07;22.00;99.90
21563;DHT22;10942;47.894;11.424;2023-06-10T17:55:34;21.80;99.90
21563;DHT22;10942;47.894;11.424;2023-06-10T17:58:00;21.70;99.90
21563;DHT22;10942;47.894;11.424;2023-06-10T18:00:26;21.60;99.90
21563;DHT22;10942;47.894;11.424;2023-06-10T18:02:52;21.60;99.90
21563;DHT22;10942;47.894;11.424;2023-06-10T18:05:18;21.60;99.90
21563;DHT22;10942;47.894;11.424;2023-06-10T18:07:44;21.70;99.90
21563;DHT22;10942;47.894;11.424;2023-06-10T18:10:10;21.60;99.90
21563;DHT22;10942;47.894;11.424;2023-06-10T18:12:36;21.50;99.90
21563;DHT22;10942;47.894;11.424;2023-06-10T18:15:03;21.50;99.90
21563;DHT22;10942;47.894;11.424;2023-06-10T18:17:29;21.40;99.90
21563;DHT22;10942;47.894;11.424;2023-06-10T18:19:54;21.40;99.90
21563;DHT22;10942;47.894;11.424;2023-06-10T18:22:20;21.40;99.90
21563;DHT22;10942;47.894;11.424;2023-06-10T18:24:46;21.30;99.90
21563;DHT22;10942;47.894;11.424;2023-06-10T18:27:12;21.20;99.90
21563;DHT22;10942;47.894;11.424;2023-06-10T18:29:38;21.20;99.90
21563;DHT22;10942;47.894;11.424;2023-06-10T18:32:04;21.30;99.90
21563;DHT22;10942;47.894;11.424;2023-06-10T18:34:32;21.20;99.90
21563;DHT22;10942;47.894;11.424;2023-06-10T18:36:57;21.20;99.90
21563;DHT22;10942;47.894;11.424;2023-06-10T18:39:23;21.10;99.90
21563;DHT22;10942;47.894;11.424;2023-06-10T18:41:49;21.10;99.90
21563;DHT22;10942;47.894;11.424;2023-06-10T18:44:14;21.00;99.90
21563;DHT22;10942;47.894;11.424;2023-06-10T18:46:40;21.10;99.90
21563;DHT22;10942;47.894;11.424;2023-06-10T18:49:06;21.00;99.90
21563;DHT22;10942;47.894;11.424;2023-06-10T18:51:31;21.10;99.90
21563;DHT22;10942;47.894;11.424;2023-06-10T18:53:57;21.00;99.90
21563;DHT22;10942;47.894;11.424;2023-06-10T18:56:23;20.90;99.90
21563;DHT22;10942;47.894;11.424;2023-06-10T18:58:48;20.80;99.90
21563;DHT22;10942;47.894;11.424;2023-06-10T19:01:15;20.80;99.90
21563;DHT22;10942;47.894;11.424;2023-06-10T19:03:41;20.80;99.90
21563;DHT22;10942;47.894;11.424;2023-06-10T19:06:07;20.70;99.90
21563;DHT22;10942;47.894;11.424;2023-06-10T19:08:33;20.70;99.90
21563;DHT22;10942;47.894;11.424;2023-06-10T19:10:58;20.60;99.90
21563;DHT22;10942;47.894;11.424;2023-06-10T19:13:25;20.60;99.90
21563;DHT22;10942;47.894;11.424;2023-06-10T20:14:26;20.10;99.90
21563;DHT22;10942;47.894;11.424;2023-06-10T20:16:52;19.50;99.90
21563;DHT22;10942;47.894;11.424;2023-06-10T20:19:18;19.40;99.90
21563;DHT22;10942;47.894;11.424;2023-06-10T20:21:44;19.30;99.90
21563;DHT22;10942;47.894;11.424;2023-06-10T20:46:07;19.30;99.90
21563;DHT22;10942;47.894;11.424;2023-06-10T20:48:33;18.70;99.90
21563;DHT22;10942;47.894;11.424;2023-06-10T20:50:58;18.60;99.90
21563;DHT22;10942;47.894;11.424;2023-06-10T20:53:24;18.60;99.90
21563;DHT22;10942;47.894;11.424;2023-06-10T20:55:50;18.60;99.90
21563;DHT22;10942;47.894;11.424;2023-06-10T20:58:15;18.50;99.90
21563;DHT22;10942;47.894;11.424;2023-06-10T21:00:41;18.50;99.90
21563;DHT22;10942;47.894;11.424;2023-06-10T21:03:07;18.30;99.90
21563;DHT22;10942;47.894;11.424;2023-06-10T21:05:33;18.30;99.90
21563;DHT22;10942;47.894;11.424;2023-06-10T21:07:58;18.40;99.90
21563;DHT22;10942;47.894;11.424;2023-06-10T21:10:24;18.40;99.90
21563;DHT22;10942;47.894;11.424;2023-06-10T21:12:50;18.30;99.90
21563;DHT22;10942;47.894;11.424;2023-06-10T21:15:17;18.30;99.90
21563;DHT22;10942;47.894;11.424;2023-06-10T21:17:43;18.20;99.90
21563;DHT22;10942;47.894;11.424;2023-06-10T21:20:10;18.10;99.90
21563;DHT22;10942;47.894;11.424;2023-06-10T21:22:36;18.10;99.90
21563;DHT22;10942;47.894;11.424;2023-06-10T21:25:02;18.10;99.90
21563;DHT22;10942;47.894;11.424;2023-06-10T21:27:29;18.10;99.90
21563;DHT22;10942;47.894;11.424;2023-06-10T21:29:55;18.10;99.90
21563;DHT22;10942;47.894;11.424;2023-06-10T21:32:21;18.10;99.90
21563;DHT22;10942;47.894;11.424;2023-06-10T21:34:46;18.00;99.90
21563;DHT22;10942;47.894;11.424;2023-06-10T21:37:12;18.00;99.90
21563;DHT22;10942;47.894;11.424;2023-06-10T21:39:38;18.00;99.90
21563;DHT22;10942;47.894;11.424;2023-06-10T21:42:04;17.90;99.90
21563;DHT22;10942;47.894;11.424;2023-06-10T21:44:30;17.90;99.90
21563;DHT22;10942;47.894;11.424;2023-06-10T21:46:55;17.80;99.90
21563;DHT22;10942;47.894;11.424;2023-06-10T21:49:21;17.90;99.90
21563;DHT22;10942;47.894;11.424;2023-06-10T21:51:47;18.00;99.90
21563;DHT22;10942;47.894;11.424;2023-06-10T21:54:12;17.90;99.90
21563;DHT22;10942;47.894;11.424;2023-06-10T21:56:38;17.90;99.90
21563;DHT22;10942;47.894;11.424;2023-06-10T21:59:04;18.00;99.90
21563;DHT22;10942;47.894;11.424;2023-06-10T22:01:30;17.90;99.90
21563;DHT22;10942;47.894;11.424;2023-06-10T22:03:57;18.00;99.90
21563;DHT22;10942;47.894;11.424;2023-06-10T22:06:22;18.00;99.90
21563;DHT22;10942;47.894;11.424;2023-06-10T22:08:48;18.00;99.90
21563;DHT22;10942;47.894;11.424;2023-06-10T22:11:15;18.00;99.90
21563;DHT22;10942;47.894;11.424;2023-06-10T22:13:41;18.10;99.90
21563;DHT22;10942;47.894;11.424;2023-06-10T22:16:07;18.10;99.90
21563;DHT22;10942;47.894;11.424;2023-06-10T22:18:33;18.10;99.90
21563;DHT22;10942;47.894;11.424;2023-06-10T22:20:59;18.10;99.90
21563;DHT22;10942;47.894;11.424;2023-06-10T22:23:25;18.20;99.90
